sensor_id;sensor_type;location;lat;lon;timestamp;temperature;humidity
43810;DHT22;29440;48.208;11.162;2022-07-23T00:01:24;24.50;95.30
43810;DHT22;29440;48.208;11.162;2022-07-23T00:03:50;24.50;95.90
43810;DHT22;29440;48.208;11.162;2022-07-23T00:06:17;24.50;95.30
43810;DHT22;29440;48.208;11.162;2022-07-23T00:08:43;24.50;95.60
43810;DHT22;29440;48.208;11.162;2022-07-23T00:11:09;24.30;96.20
43810;DHT22;29440;48.208;11.162;2022-07-23T00:13:35;24.40;95.50
43810;DHT22;29440;48.208;11.162;2022-07-23T00:16:01;24.30;94.90
43810;DHT22;29440;48.208;11.162;2022-07-23T00:18:27;24.40;95.20
43810;DHT22;29440;48.208;11.162;2022-07-23T00:20:53;24.30;95.20
43810;DHT22;29440;48.208;11.162;2022-07-23T00:23:19;24.50;95.10
43810;DHT22;29440;48.208;11.162;2022-07-23T00:25:45;24.20;95.10
43810;DHT22;29440;48.208;11.162;2022-07-23T00:28:11;24.20;94.90
43810;DHT22;29440;48.208;11.162;2022-07-23T00:30:37;24.20;94.60
43810;DHT22;29440;48.208;11.162;2022-07-23T00:33:05;24.20;95.10
43810;DHT22;29440;48.208;11.162;2022-07-23T00:35:33;24.10;94.90
43810;DHT22;29440;48.208;11.162;2022-07-23T00:38:01;24.10;94.50
43810;DHT22;29440;48.208;11.162;2022-07-23T00:40:27;24.10;94.40
43810;DHT22;29440;48.208;11.162;2022-07-23T00:42:53;24.10;94.80
43810;DHT22;29440;48.208;11.162;2022-07-23T00:45:19;24.10;95.20
43810;DHT22;29440;48.208;11.162;2022-07-23T00:47:46;24.10;94.50
43810;DHT22;29440;48.208;11.162;2022-07-23T00:50:12;24.00;94.40
43810;DHT22;29440;48.208;11.162;2022-07-23T00:52:38;24.00;94.00
43810;DHT22;29440;48.208;11.162;2022-07-23T00:55:06;24.00;93.60
43810;DHT22;29440;48.208;11.162;2022-07-23T00:57:32;23.90;93.60
43810;DHT22;29440;48.208;11.162;2022-07-23T00:59:58;23.80;93.90
43810;DHT22;29440;48.208;11.162;2022-07-23T01:02:24;23.80;94.70
43810;DHT22;29440;48.208;11.162;2022-07-23T01:04:50;23.70;94.40
43810;DHT22;29440;48.208;11.162;2022-07-23T01:07:17;23.70;94.70
43810;DHT22;29440;48.208;11.162;2022-07-23T01:09:45;23.60;96.30
43810;DHT22;29440;48.208;11.162;2022-07-23T01:12:11;23.40;98.20
43810;DHT22;29440;48.208;11.162;2022-07-23T01:14:37;22.90;99.10
43810;DHT22;29440;48.208;11.162;2022-07-23T01:17:03;22.70;99.90
43810;DHT22;29440;48.208;11.162;2022-07-23T01:19:29;22.30;99.90
43810;DHT22;29440;48.208;11.162;2022-07-23T01:21:57;22.10;99.90
43810;DHT22;29440;48.208;11.162;2022-07-23T01:24:24;21.70;99.90
43810;DHT22;29440;48.208;11.162;2022-07-23T01:26:49;21.40;99.90
43810;DHT22;29440;48.208;11.162;2022-07-23T01:29:16;21.20;99.90
43810;DHT22;29440;48.208;11.162;2022-07-23T01:31:42;21.10;99.90
43810;DHT22;29440;48.208;11.162;2022-07-23T01:34:08;20.90;99.90
43810;DHT22;29440;48.208;11.162;2022-07-23T01:36:34;20.80;99.90
43810;DHT22;29440;48.208;11.162;2022-07-23T01:39:01;20.70;99.90
43810;DHT22;29440;48.208;11.162;2022-07-23T01:41:26;20.60;99.90
43810;DHT22;29440;48.208;11.162;2022-07-23T01:43:52;20.60;99.90
43810;DHT22;29440;48.208;11.162;2022-07-23T01:46:18;20.50;99.90
43810;DHT22;29440;48.208;11.162;2022-07-23T01:48:43;20.50;99.90
43810;DHT22;29440;48.208;11.162;2022-07-23T01:51:14;20.40;99.90
43810;DHT22;29440;48.208;11.162;2022-07-23T01:53:40;20.40;99.90
43810;DHT22;29440;48.208;11.162;2022-07-23T01:56:06;20.40;99.90
43810;DHT22;29440;48.208;11.162;2022-07-23T01:58:31;20.40;99.90
43810;DHT22;29440;48.208;11.162;2022-07-23T02:00:57;20.40;99.90
43810;DHT22;29440;48.208;11.162;2022-07-23T02:03:23;20.40;99.90
43810;DHT22;29440;48.208;11.162;2022-07-23T02:05:49;20.20;99.90
43810;DHT22;29440;48.208;11.162;2022-07-23T02:08:14;20.10;99.90
43810;DHT22;29440;48.208;11.162;2022-07-23T02:10:40;20.00;99.90
43810;DHT22;29440;48.208;11.162;2022-07-23T02:13:06;20.00;99.90
43810;DHT22;29440;48.208;11.162;2022-07-23T02:15:31;19.80;99.90
43810;DHT22;29440;48.208;11.162;2022-07-23T02:17:58;19.70;99.90
43810;DHT22;29440;48.208;11.162;2022-07-23T02:20:24;19.60;99.90
43810;DHT22;29440;48.208;11.162;2022-07-23T02:22:50;19.50;99.90
43810;DHT22;29440;48.208;11.162;2022-07-23T02:25:16;19.60;99.90
43810;DHT22;29440;48.208;11.162;2022-07-23T02:27:42;19.60;99.90
43810;DHT22;29440;48.208;11.162;2022-07-23T02:30:08;19.60;99.90
43810;DHT22;29440;48.208;11.162;2022-07-23T02:32:35;19.60;99.90
43810;DHT22;29440;48.208;11.162;2022-07-23T02:35:01;19.60;99.90
43810;DHT22;29440;48.208;11.162;2022-07-23T02:37:27;19.60;99.90
43810;DHT22;29440;48.208;11.162;2022-07-23T02:39:53;19.60;99.90
43810;DHT22;29440;48.208;11.162;2022-07-23T02:42:19;19.70;99.90
43810;DHT22;29440;48.208;11.162;2022-07-23T02:44:44;19.70;99.90
43810;DHT22;29440;48.208;11.162;2022-07-23T02:47:10;19.70;99.90
43810;DHT22;29440;48.208;11.162;2022-07-23T02:49:35;19.80;99.90
43810;DHT22;29440;48.208;11.162;2022-07-23T02:52:01;19.90;99.90
43810;DHT22;29440;48.208;11.162;2022-07-23T02:54:27;19.90;99.90
43810;DHT22;29440;48.208;11.162;2022-07-23T02:56:53;19.80;99.90
43810;DHT22;29440;48.208;11.162;2022-07-23T02:59:19;19.70;99.90
43810;DHT22;29440;48.208;11.162;2022-07-23T03:01:45;19.80;99.90
43810;DHT22;29440;48.208;11.162;2022-07-23T03:04:11;19.70;99.90
43810;DHT22;29440;48.208;11.162;2022-07-23T03:06:37;19.70;99.90
43810;DHT22;29440;48.208;11.162;2022-07-23T03:09:07;19.60;99.90
43810;DHT22;29440;48.208;11.162;2022-07-23T03:11:32;19.60;99.90
43810;DHT22;29440;48.208;11.162;2022-07-23T03:13:58;19.50;99.90
43810;DHT22;29440;48.208;11.162;2022-07-23T03:16:23;19.40;99.90
43810;DHT22;29440;48.208;11.162;2022-07-23T03:18:49;19.40;99.90
43810;DHT22;29440;48.208;11.162;2022-07-23T03:21:15;19.30;99.90
43810;DHT22;29440;48.208;11.162;2022-07-23T03:23:40;19.30;99.90
43810;DHT22;29440;48.208;11.162;2022-07-23T03:26:06;19.20;99.90
43810;DHT22;29440;48.208;11.162;2022-07-23T03:28:31;19.10;99.90
43810;DHT22;29440;48.208;11.162;2022-07-23T03:30:57;19.10;99.90
43810;DHT22;29440;48.208;11.162;2022-07-23T03:33:23;19.10;99.90
43810;DHT22;29440;48.208;11.162;2022-07-23T03:35:49;19.10;99.90
43810;DHT22;29440;48.208;11.162;2022-07-23T03:38:15;19.10;99.90
43810;DHT22;29440;48.208;11.162;2022-07-23T03:40:41;19.20;99.90
43810;DHT22;29440;48.208;11.162;2022-07-23T03:43:07;19.20;99.90
43810;DHT22;29440;48.208;11.162;2022-07-23T03:45:33;19.30;99.90
43810;DHT22;29440;48.208;11.162;2022-07-23T03:47:59;19.20;99.90
43810;DHT22;29440;48.208;11.162;2022-07-23T03:50:25;19.30;99.90
43810;DHT22;29440;48.208;11.162;2022-07-23T03:55:18;19.20;99.90
43810;DHT22;29440;48.208;11.162;2022-07-23T03:57:44;19.30;99.90
43810;DHT22;29440;48.208;11.162;2022-07-23T04:00:10;19.20;99.90
43810;DHT22;29440;48.208;11.162;2022-07-23T04:02:37;19.20;99.90
43810;DHT22;29440;48.208;11.162;2022-07-23T04:05:03;19.20;99.90
43810;DHT22;29440;48.208;11.162;2022-07-23T04:07:29;19.20;99.90
43810;DHT22;29440;48.208;11.162;2022-07-23T04:09:55;19.10;99.90
43810;DHT22;29440;48.208;11.162;2022-07-23T04:12:20;19.10;99.90
43810;DHT22;29440;48.208;11.162;2022-07-23T04:14:46;19.10;99.90
43810;DHT22;29440;48.208;11.162;2022-07-23T04:17:12;19.20;99.90
43810;DHT22;29440;48.208;11.162;2022-07-23T04:19:38;19.10;99.90
43810;DHT22;29440;48.208;11.162;2022-07-23T04:22:07;19.10;99.90
43810;DHT22;29440;48.208;11.162;2022-07-23T04:24:33;19.10;99.90
43810;DHT22;29440;48.208;11.162;2022-07-23T04:26:59;19.20;99.90
43810;DHT22;29440;48.208;11.162;2022-07-23T04:29:24;19.30;99.90
43810;DHT22;29440;48.208;11.162;2022-07-23T04:31:50;19.30;99.90
43810;DHT22;29440;48.208;11.162;2022-07-23T04:34:16;19.40;99.90
43810;DHT22;29440;48.208;11.162;2022-07-23T04:36:42;19.40;99.90
43810;DHT22;29440;48.208;11.162;2022-07-23T04:39:07;19.40;99.90
43810;DHT22;29440;48.208;11.162;2022-07-23T04:41:33;19.40;99.90
43810;DHT22;29440;48.208;11.162;2022-07-23T04:43:59;19.40;99.90
43810;DHT22;29440;48.208;11.162;2022-07-23T04:46:25;19.50;99.90
43810;DHT22;29440;48.208;11.162;2022-07-23T04:48:50;19.50;99.90
43810;DHT22;29440;48.208;11.162;2022-07-23T04:51:16;19.50;99.90
43810;DHT22;29440;48.208;11.162;2022-07-23T04:53:41;19.50;99.90
43810;DHT22;29440;48.208;11.162;2022-07-23T04:56:07;19.50;99.90
43810;DHT22;29440;48.208;11.162;2022-07-23T04:58:33;19.50;99.90
43810;DHT22;29440;48.208;11.162;2022-07-23T05:00:58;19.50;99.90
43810;DHT22;29440;48.208;11.162;2022-07-23T05:03:24;19.60;99.90
43810;DHT22;29440;48.208;11.162;2022-07-23T05:05:49;19.60;99.90
43810;DHT22;29440;48.208;11.162;2022-07-23T05:08:15;19.60;99.90
43810;DHT22;29440;48.208;11.162;2022-07-23T05:10:41;19.60;99.90
43810;DHT22;29440;48.208;11.162;2022-07-23T05:13:06;19.60;99.90
43810;DHT22;29440;48.208;11.162;2022-07-23T05:15:32;19.70;99.90
43810;DHT22;29440;48.208;11.162;2022-07-23T05:17:57;19.80;99.90
43810;DHT22;29440;48.208;11.162;2022-07-23T05:20:31;19.80;99.90
43810;DHT22;29440;48.208;11.162;2022-07-23T05:22:56;19.90;99.90
43810;DHT22;29440;48.208;11.162;2022-07-23T05:25:22;20.00;99.90
43810;DHT22;29440;48.208;11.162;2022-07-23T05:27:47;20.10;99.90
43810;DHT22;29440;48.208;11.162;2022-07-23T05:30:17;20.10;99.90
43810;DHT22;29440;48.208;11.162;2022-07-23T05:32:43;20.10;99.90
43810;DHT22;29440;48.208;11.162;2022-07-23T05:35:12;20.20;99.90
43810;DHT22;29440;48.208;11.162;2022-07-23T05:37:38;20.20;99.90
43810;DHT22;29440;48.208;11.162;2022-07-23T05:40:05;20.20;99.90
43810;DHT22;29440;48.208;11.162;2022-07-23T05:42:35;20.30;99.90
43810;DHT22;29440;48.208;11.162;2022-07-23T05:45:01;20.30;99.90
43810;DHT22;29440;48.208;11.162;2022-07-23T05:47:26;20.30;99.90
43810;DHT22;29440;48.208;11.162;2022-07-23T05:49:52;20.40;99.90
43810;DHT22;29440;48.208;11.162;2022-07-23T05:52:17;20.40;99.90
43810;DHT22;29440;48.208;11.162;2022-07-23T05:54:43;20.40;99.90
43810;DHT22;29440;48.208;11.162;2022-07-23T05:57:08;20.40;99.90
43810;DHT22;29440;48.208;11.162;2022-07-23T05:59:34;20.30;99.90
43810;DHT22;29440;48.208;11.162;2022-07-23T06:01:59;20.30;99.90
43810;DHT22;29440;48.208;11.162;2022-07-23T06:04:25;20.20;99.90
43810;DHT22;29440;48.208;11.162;2022-07-23T06:06:51;20.20;99.90
43810;DHT22;29440;48.208;11.162;2022-07-23T06:09:17;20.20;99.90
43810;DHT22;29440;48.208;11.162;2022-07-23T06:11:43;20.20;99.90
43810;DHT22;29440;48.208;11.162;2022-07-23T06:14:09;20.30;99.90
43810;DHT22;29440;48.208;11.162;2022-07-23T06:16:34;20.40;99.90
43810;DHT22;29440;48.208;11.162;2022-07-23T06:19:00;20.50;99.90
43810;DHT22;29440;48.208;11.162;2022-07-23T06:21:25;20.60;99.90
43810;DHT22;29440;48.208;11.162;2022-07-23T06:23:51;20.60;99.90
43810;DHT22;29440;48.208;11.162;2022-07-23T06:26:16;20.60;99.90
43810;DHT22;29440;48.208;11.162;2022-07-23T06:28:42;20.60;99.90
43810;DHT22;29440;48.208;11.162;2022-07-23T06:31:07;20.60;99.90
43810;DHT22;29440;48.208;11.162;2022-07-23T06:33:33;20.60;99.90
43810;DHT22;29440;48.208;11.162;2022-07-23T06:35:59;20.60;99.90
43810;DHT22;29440;48.208;11.162;2022-07-23T06:38:25;20.60;99.90
43810;DHT22;29440;48.208;11.162;2022-07-23T06:40:51;20.50;99.90
43810;DHT22;29440;48.208;11.162;2022-07-23T06:43:17;20.60;99.90
43810;DHT22;29440;48.208;11.162;2022-07-23T06:45:42;20.60;99.90
43810;DHT22;29440;48.208;11.162;2022-07-23T06:48:08;20.70;99.90
43810;DHT22;29440;48.208;11.162;2022-07-23T06:50:33;20.70;99.90
43810;DHT22;29440;48.208;11.162;2022-07-23T06:52:59;20.70;99.90
43810;DHT22;29440;48.208;11.162;2022-07-23T06:55:25;20.70;99.90
43810;DHT22;29440;48.208;11.162;2022-07-23T06:57:50;20.70;99.90
43810;DHT22;29440;48.208;11.162;2022-07-23T07:00:16;20.70;99.90
43810;DHT22;29440;48.208;11.162;2022-07-23T07:02:42;20.80;99.90
43810;DHT22;29440;48.208;11.162;2022-07-23T07:05:07;20.80;99.90
43810;DHT22;29440;48.208;11.162;2022-07-23T07:07:34;20.90;99.90
43810;DHT22;29440;48.208;11.162;2022-07-23T07:09:59;20.90;99.90
43810;DHT22;29440;48.208;11.162;2022-07-23T07:12:25;21.00;99.90
43810;DHT22;29440;48.208;11.162;2022-07-23T07:14:50;20.90;99.90
43810;DHT22;29440;48.208;11.162;2022-07-23T07:17:16;20.90;99.90
43810;DHT22;29440;48.208;11.162;2022-07-23T07:19:41;21.00;99.90
43810;DHT22;29440;48.208;11.162;2022-07-23T07:22:07;20.90;99.90
43810;DHT22;29440;48.208;11.162;2022-07-23T07:24:33;20.90;99.90
43810;DHT22;29440;48.208;11.162;2022-07-23T07:26:58;20.90;99.90
43810;DHT22;29440;48.208;11.162;2022-07-23T07:29:24;20.90;99.90
43810;DHT22;29440;48.208;11.162;2022-07-23T07:31:50;20.90;99.90
43810;DHT22;29440;48.208;11.162;2022-07-23T07:34:15;20.90;99.90
43810;DHT22;29440;48.208;11.162;2022-07-23T07:36:41;20.80;99.90
43810;DHT22;29440;48.208;11.162;2022-07-23T07:39:08;20.80;99.90
43810;DHT22;29440;48.208;11.162;2022-07-23T07:41:35;20.80;99.90
43810;DHT22;29440;48.208;11.162;2022-07-23T07:44:01;20.70;99.90
43810;DHT22;29440;48.208;11.162;2022-07-23T07:46:27;20.70;99.90
43810;DHT22;29440;48.208;11.162;2022-07-23T07:48:53;20.60;99.90
43810;DHT22;29440;48.208;11.162;2022-07-23T07:51:18;20.60;99.90
43810;DHT22;29440;48.208;11.162;2022-07-23T07:53:44;20.60;99.90
43810;DHT22;29440;48.208;11.162;2022-07-23T07:56:09;20.60;99.90
43810;DHT22;29440;48.208;11.162;2022-07-23T07:58:35;20.60;99.90
43810;DHT22;29440;48.208;11.162;2022-07-23T08:01:01;20.50;99.90
43810;DHT22;29440;48.208;11.162;2022-07-23T08:03:27;20.50;99.90
43810;DHT22;29440;48.208;11.162;2022-07-23T08:05:53;20.40;99.90
43810;DHT22;29440;48.208;11.162;2022-07-23T08:08:20;20.30;99.90
43810;DHT22;29440;48.208;11.162;2022-07-23T08:10:46;20.40;99.90
43810;DHT22;29440;48.208;11.162;2022-07-23T08:13:13;20.50;99.90
43810;DHT22;29440;48.208;11.162;2022-07-23T08:15:40;20.60;99.90
43810;DHT22;29440;48.208;11.162;2022-07-23T08:18:05;20.60;99.90
43810;DHT22;29440;48.208;11.162;2022-07-23T08:20:31;20.60;99.90
43810;DHT22;29440;48.208;11.162;2022-07-23T08:23:02;20.60;99.90
43810;DHT22;29440;48.208;11.162;2022-07-23T08:25:30;20.70;99.90
43810;DHT22;29440;48.208;11.162;2022-07-23T08:28:12;20.90;99.90
43810;DHT22;29440;48.208;11.162;2022-07-23T08:30:39;21.00;99.90
43810;DHT22;29440;48.208;11.162;2022-07-23T08:33:10;21.20;99.90
43810;DHT22;29440;48.208;11.162;2022-07-23T08:35:43;21.50;99.90
43810;DHT22;29440;48.208;11.162;2022-07-23T08:38:10;21.80;99.90
43810;DHT22;29440;48.208;11.162;2022-07-23T08:40:47;22.10;99.90
43810;DHT22;29440;48.208;11.162;2022-07-23T08:43:15;22.50;99.90
43810;DHT22;29440;48.208;11.162;2022-07-23T08:45:46;22.90;99.90
43810;DHT22;29440;48.208;11.162;2022-07-23T08:48:20;23.30;99.90
43810;DHT22;29440;48.208;11.162;2022-07-23T08:50:47;23.70;99.90
43810;DHT22;29440;48.208;11.162;2022-07-23T08:53:14;24.00;99.90
43810;DHT22;29440;48.208;11.162;2022-07-23T08:55:43;24.30;99.90
43810;DHT22;29440;48.208;11.162;2022-07-23T08:58:09;24.50;99.90
43810;DHT22;29440;48.208;11.162;2022-07-23T09:00:35;24.80;99.90
43810;DHT22;29440;48.208;11.162;2022-07-23T09:03:00;25.10;99.90
43810;DHT22;29440;48.208;11.162;2022-07-23T09:05:26;25.30;99.90
43810;DHT22;29440;48.208;11.162;2022-07-23T09:08:10;25.50;99.90
43810;DHT22;29440;48.208;11.162;2022-07-23T09:10:56;25.70;99.90
43810;DHT22;29440;48.208;11.162;2022-07-23T09:15:53;25.90;99.90
43810;DHT22;29440;48.208;11.162;2022-07-23T09:18:19;26.10;99.90
43810;DHT22;29440;48.208;11.162;2022-07-23T09:20:45;26.10;99.90
43810;DHT22;29440;48.208;11.162;2022-07-23T09:23:10;26.20;99.90
43810;DHT22;29440;48.208;11.162;2022-07-23T09:25:36;26.30;99.90
43810;DHT22;29440;48.208;11.162;2022-07-23T09:28:02;26.40;99.90
43810;DHT22;29440;48.208;11.162;2022-07-23T09:30:32;26.60;99.90
43810;DHT22;29440;48.208;11.162;2022-07-23T09:33:15;26.60;99.90
43810;DHT22;29440;48.208;11.162;2022-07-23T09:35:54;26.80;99.90
43810;DHT22;29440;48.208;11.162;2022-07-23T09:38:22;26.80;99.90
43810;DHT22;29440;48.208;11.162;2022-07-23T09:41:08;27.00;99.90
43810;DHT22;29440;48.208;11.162;2022-07-23T09:43:34;27.10;99.90
43810;DHT22;29440;48.208;11.162;2022-07-23T09:46:19;27.10;99.90
43810;DHT22;29440;48.208;11.162;2022-07-23T09:48:47;27.20;99.90
43810;DHT22;29440;48.208;11.162;2022-07-23T09:51:13;27.10;99.10
43810;DHT22;29440;48.208;11.162;2022-07-23T09:53:59;27.10;99.20
43810;DHT22;29440;48.208;11.162;2022-07-23T09:56:27;27.10;99.90
43810;DHT22;29440;48.208;11.162;2022-07-23T09:58:54;27.10;99.30
43810;DHT22;29440;48.208;11.162;2022-07-23T10:01:37;27.30;99.30
43810;DHT22;29440;48.208;11.162;2022-07-23T10:04:03;27.50;98.40
43810;DHT22;29440;48.208;11.162;2022-07-23T10:06:31;27.70;97.80
43810;DHT22;29440;48.208;11.162;2022-07-23T10:08:58;27.80;96.70
43810;DHT22;29440;48.208;11.162;2022-07-23T10:11:26;27.70;96.00
43810;DHT22;29440;48.208;11.162;2022-07-23T10:13:53;27.80;95.80
43810;DHT22;29440;48.208;11.162;2022-07-23T10:16:26;27.60;96.20
43810;DHT22;29440;48.208;11.162;2022-07-23T10:18:52;27.50;95.30
43810;DHT22;29440;48.208;11.162;2022-07-23T10:21:41;27.50;95.10
43810;DHT22;29440;48.208;11.162;2022-07-23T10:35:04;27.40;95.00
43810;DHT22;29440;48.208;11.162;2022-07-23T10:37:37;27.50;94.90
43810;DHT22;29440;48.208;11.162;2022-07-23T10:40:19;27.40;94.70
43810;DHT22;29440;48.208;11.162;2022-07-23T10:42:49;27.30;94.40
43810;DHT22;29440;48.208;11.162;2022-07-23T10:45:36;27.40;95.00
43810;DHT22;29440;48.208;11.162;2022-07-23T10:48:20;27.60;95.30
43810;DHT22;29440;48.208;11.162;2022-07-23T10:51:15;27.60;95.40
43810;DHT22;29440;48.208;11.162;2022-07-23T10:56:50;27.80;94.80
43810;DHT22;29440;48.208;11.162;2022-07-23T10:59:18;27.60;94.20
43810;DHT22;29440;48.208;11.162;2022-07-23T11:01:44;27.50;93.60
43810;DHT22;29440;48.208;11.162;2022-07-23T11:04:10;27.20;94.20
43810;DHT22;29440;48.208;11.162;2022-07-23T11:09:24;26.90;94.60
43810;DHT22;29440;48.208;11.162;2022-07-23T11:15:12;26.60;94.90
43810;DHT22;29440;48.208;11.162;2022-07-23T11:20:18;26.30;95.70
43810;DHT22;29440;48.208;11.162;2022-07-23T11:27:48;26.10;96.30
43810;DHT22;29440;48.208;11.162;2022-07-23T11:35:35;25.90;96.60
43810;DHT22;29440;48.208;11.162;2022-07-23T11:40:34;25.90;97.20
43810;DHT22;29440;48.208;11.162;2022-07-23T11:43:05;25.90;96.90
43810;DHT22;29440;48.208;11.162;2022-07-23T11:45:40;25.90;96.90
43810;DHT22;29440;48.208;11.162;2022-07-23T11:48:09;25.90;96.90
43810;DHT22;29440;48.208;11.162;2022-07-23T11:50:42;25.90;97.00
43810;DHT22;29440;48.208;11.162;2022-07-23T11:53:07;25.90;97.20
43810;DHT22;29440;48.208;11.162;2022-07-23T11:55:33;25.90;97.30
43810;DHT22;29440;48.208;11.162;2022-07-23T11:58:04;25.90;97.50
43810;DHT22;29440;48.208;11.162;2022-07-23T12:00:46;25.90;97.70
43810;DHT22;29440;48.208;11.162;2022-07-23T12:03:12;26.00;97.20
43810;DHT22;29440;48.208;11.162;2022-07-23T12:05:38;26.20;97.20
43810;DHT22;29440;48.208;11.162;2022-07-23T12:08:06;26.00;96.90
43810;DHT22;29440;48.208;11.162;2022-07-23T12:10:38;26.10;97.00
43810;DHT22;29440;48.208;11.162;2022-07-23T12:13:21;26.10;97.10
43810;DHT22;29440;48.208;11.162;2022-07-23T12:15:56;26.20;97.00
43810;DHT22;29440;48.208;11.162;2022-07-23T12:18:24;26.30;97.30
43810;DHT22;29440;48.208;11.162;2022-07-23T12:20:57;26.40;97.20
43810;DHT22;29440;48.208;11.162;2022-07-23T12:23:29;26.50;97.10
43810;DHT22;29440;48.208;11.162;2022-07-23T12:25:55;26.60;96.70
43810;DHT22;29440;48.208;11.162;2022-07-23T12:28:31;26.60;96.20
43810;DHT22;29440;48.208;11.162;2022-07-23T12:31:03;26.60;96.60
43810;DHT22;29440;48.208;11.162;2022-07-23T12:35:58;26.60;96.90
43810;DHT22;29440;48.208;11.162;2022-07-23T12:38:25;26.60;96.40
43810;DHT22;29440;48.208;11.162;2022-07-23T12:40:56;26.50;96.50
43810;DHT22;29440;48.208;11.162;2022-07-23T12:43:33;26.60;96.70
43810;DHT22;29440;48.208;11.162;2022-07-23T12:51:01;26.30;97.20
43810;DHT22;29440;48.208;11.162;2022-07-23T12:53:38;26.30;97.10
43810;DHT22;29440;48.208;11.162;2022-07-23T12:56:10;26.30;97.30
43810;DHT22;29440;48.208;11.162;2022-07-23T12:58:53;26.10;97.90
43810;DHT22;29440;48.208;11.162;2022-07-23T13:03:55;26.00;98.00
43810;DHT22;29440;48.208;11.162;2022-07-23T13:06:21;26.00;98.50
43810;DHT22;29440;48.208;11.162;2022-07-23T13:08:47;25.70;98.90
43810;DHT22;29440;48.208;11.162;2022-07-23T13:11:13;25.80;99.00
43810;DHT22;29440;48.208;11.162;2022-07-23T13:13:39;25.80;99.00
43810;DHT22;29440;48.208;11.162;2022-07-23T13:16:04;25.70;98.60
43810;DHT22;29440;48.208;11.162;2022-07-23T13:18:31;25.80;98.50
43810;DHT22;29440;48.208;11.162;2022-07-23T13:20:57;26.00;98.60
43810;DHT22;29440;48.208;11.162;2022-07-23T13:23:22;26.20;98.60
43810;DHT22;29440;48.208;11.162;2022-07-23T13:25:48;26.30;98.30
43810;DHT22;29440;48.208;11.162;2022-07-23T13:28:15;26.50;98.10
43810;DHT22;29440;48.208;11.162;2022-07-23T13:30:42;26.60;97.80
43810;DHT22;29440;48.208;11.162;2022-07-23T13:33:07;26.60;97.40
43810;DHT22;29440;48.208;11.162;2022-07-23T13:35:35;26.60;97.10
43810;DHT22;29440;48.208;11.162;2022-07-23T13:38:02;26.50;97.40
43810;DHT22;29440;48.208;11.162;2022-07-23T13:40:28;26.40;97.20
43810;DHT22;29440;48.208;11.162;2022-07-23T13:42:54;26.40;97.30
43810;DHT22;29440;48.208;11.162;2022-07-23T13:45:20;26.30;97.10
43810;DHT22;29440;48.208;11.162;2022-07-23T13:47:45;26.30;97.00
43810;DHT22;29440;48.208;11.162;2022-07-23T13:50:12;26.40;97.10
43810;DHT22;29440;48.208;11.162;2022-07-23T13:52:38;26.20;97.40
43810;DHT22;29440;48.208;11.162;2022-07-23T13:55:05;26.10;97.60
43810;DHT22;29440;48.208;11.162;2022-07-23T13:57:33;26.00;97.30
43810;DHT22;29440;48.208;11.162;2022-07-23T13:59:59;25.90;97.50
43810;DHT22;29440;48.208;11.162;2022-07-23T14:02:24;25.80;97.30
43810;DHT22;29440;48.208;11.162;2022-07-23T14:04:50;25.80;97.90
43810;DHT22;29440;48.208;11.162;2022-07-23T14:07:16;25.80;98.50
43810;DHT22;29440;48.208;11.162;2022-07-23T14:09:42;25.80;98.40
43810;DHT22;29440;48.208;11.162;2022-07-23T14:12:08;25.90;98.50
43810;DHT22;29440;48.208;11.162;2022-07-23T14:14:34;25.90;98.50
43810;DHT22;29440;48.208;11.162;2022-07-23T14:16:59;26.00;98.60
43810;DHT22;29440;48.208;11.162;2022-07-23T14:19:25;26.10;98.20
43810;DHT22;29440;48.208;11.162;2022-07-23T14:21:51;26.20;98.30
43810;DHT22;29440;48.208;11.162;2022-07-23T14:24:17;26.30;98.40
43810;DHT22;29440;48.208;11.162;2022-07-23T14:26:42;26.50;98.90
43810;DHT22;29440;48.208;11.162;2022-07-23T14:29:08;26.60;98.00
43810;DHT22;29440;48.208;11.162;2022-07-23T14:31:34;26.70;97.80
43810;DHT22;29440;48.208;11.162;2022-07-23T14:33:59;26.80;97.80
43810;DHT22;29440;48.208;11.162;2022-07-23T14:36:25;26.80;97.20
43810;DHT22;29440;48.208;11.162;2022-07-23T14:38:51;26.80;97.30
43810;DHT22;29440;48.208;11.162;2022-07-23T14:41:16;26.80;97.30
43810;DHT22;29440;48.208;11.162;2022-07-23T14:43:42;26.80;97.10
43810;DHT22;29440;48.208;11.162;2022-07-23T14:46:08;26.70;97.30
43810;DHT22;29440;48.208;11.162;2022-07-23T14:48:34;26.70;97.40
43810;DHT22;29440;48.208;11.162;2022-07-23T14:50:59;26.70;97.40
43810;DHT22;29440;48.208;11.162;2022-07-23T14:53:39;26.80;97.50
43810;DHT22;29440;48.208;11.162;2022-07-23T14:56:05;26.70;97.70
43810;DHT22;29440;48.208;11.162;2022-07-23T14:58:30;26.80;98.00
43810;DHT22;29440;48.208;11.162;2022-07-23T15:00:56;26.90;97.70
43810;DHT22;29440;48.208;11.162;2022-07-23T15:03:21;27.00;97.30
43810;DHT22;29440;48.208;11.162;2022-07-23T15:05:47;27.00;97.40
43810;DHT22;29440;48.208;11.162;2022-07-23T15:08:13;27.10;97.70
43810;DHT22;29440;48.208;11.162;2022-07-23T15:10:38;27.10;97.80
43810;DHT22;29440;48.208;11.162;2022-07-23T15:13:04;27.20;97.30
43810;DHT22;29440;48.208;11.162;2022-07-23T15:15:30;27.30;97.80
43810;DHT22;29440;48.208;11.162;2022-07-23T15:17:55;27.20;97.20
43810;DHT22;29440;48.208;11.162;2022-07-23T15:20:21;27.30;97.40
43810;DHT22;29440;48.208;11.162;2022-07-23T15:22:46;27.30;97.20
43810;DHT22;29440;48.208;11.162;2022-07-23T15:25:13;27.40;96.70
43810;DHT22;29440;48.208;11.162;2022-07-23T15:27:39;27.40;97.10
43810;DHT22;29440;48.208;11.162;2022-07-23T15:30:05;27.40;97.30
43810;DHT22;29440;48.208;11.162;2022-07-23T15:32:31;27.50;97.10
43810;DHT22;29440;48.208;11.162;2022-07-23T15:34:57;27.40;96.80
43810;DHT22;29440;48.208;11.162;2022-07-23T15:37:23;27.50;96.90
43810;DHT22;29440;48.208;11.162;2022-07-23T15:39:49;27.50;96.80
43810;DHT22;29440;48.208;11.162;2022-07-23T15:42:15;27.40;96.90
43810;DHT22;29440;48.208;11.162;2022-07-23T15:44:42;27.30;97.00
43810;DHT22;29440;48.208;11.162;2022-07-23T15:47:12;27.20;97.10
43810;DHT22;29440;48.208;11.162;2022-07-23T15:49:38;27.00;97.40
43810;DHT22;29440;48.208;11.162;2022-07-23T15:52:03;26.90;97.60
43810;DHT22;29440;48.208;11.162;2022-07-23T15:54:29;26.80;97.70
43810;DHT22;29440;48.208;11.162;2022-07-23T15:56:55;26.70;97.80
43810;DHT22;29440;48.208;11.162;2022-07-23T15:59:20;26.60;98.10
43810;DHT22;29440;48.208;11.162;2022-07-23T16:01:46;26.50;98.40
43810;DHT22;29440;48.208;11.162;2022-07-23T16:04:11;26.30;98.50
43810;DHT22;29440;48.208;11.162;2022-07-23T16:06:37;26.40;98.70